Time;durP1;ratioP1;P1;durP2;ratioP2;P2;SDS_P1;SDS_P2;PMS_P1;PMS_P2;Temp;Humidity;BMP_temperature;BMP_pressure;BME280_temperature;BME280_humidity;BME280_pressure;Samples;Min_cycle;Max_cycle;Signal;HPM_P1;HPM_P2
2022/12/26 00:01:37;;;;;;;3.50;1.60;;;9.40;94.20;;;;;;5115817;28;20042;-77
2022/12/26 00:04:03;;;;;;;4.72;2.30;;;9.50;94.50;;;;;;5099382;28;20049;-77
2022/12/26 00:06:30;;;;;;;4.00;2.00;;;9.40;94.20;;;;;;5134588;28;20035;-77
2022/12/26 00:08:56;;;;;;;4.68;2.20;;;9.40;94.20;;;;;;5098667;28;20046;-77
2022/12/26 00:11:23;;;;;;;4.88;2.17;;;9.50;94.50;;;;;;5098935;28;20035;-76
2022/12/26 00:13:58;;;;;;;4.90;2.38;;;9.50;94.20;;;;;;5134036;28;20060;-77
2022/12/26 00:16:25;;;;;;;5.22;2.25;;;9.50;94.20;;;;;;5134374;28;20051;-77
2022/12/26 00:18:51;;;;;;;5.15;2.42;;;9.50;94.20;;;;;;5081783;28;20039;-77
2022/12/26 00:21:22;;;;;;;4.63;2.40;;;9.50;94.20;;;;;;5115456;28;20432;-76
2022/12/26 00:23:48;;;;;;;5.07;1.98;;;9.50;94.20;;;;;;5134024;28;20039;-77
2022/12/26 00:26:17;;;;;;;7.15;2.67;;;9.50;94.20;;;;;;5133214;27;20138;-77
2022/12/26 00:28:44;;;;;;;6.25;2.40;;;9.50;94.20;;;;;;5098509;28;20401;-76
2022/12/26 00:31:13;;;;;;;4.65;2.22;;;9.50;94.20;;;;;;5115741;28;20505;-76
2022/12/26 00:33:39;;;;;;;4.60;1.98;;;9.50;94.20;;;;;;5115993;28;20500;-77
2022/12/26 00:36:08;;;;;;;4.00;2.13;;;9.50;94.20;;;;;;5115388;28;20047;-76
2022/12/26 00:38:36;;;;;;;4.68;2.10;;;9.60;94.20;;;;;;5133677;28;20054;-76
2022/12/26 00:41:02;;;;;;;6.13;2.97;;;9.50;94.20;;;;;;5134144;28;20039;-77
2022/12/26 00:43:27;;;;;;;4.40;2.40;;;9.60;94.20;;;;;;5115714;28;20043;-76
2022/12/26 00:45:53;;;;;;;4.38;2.20;;;9.50;94.20;;;;;;5115526;28;20514;-76
2022/12/26 00:48:18;;;;;;;5.28;2.40;;;9.60;94.20;;;;;;5133751;28;20047;-77
2022/12/26 00:50:44;;;;;;;5.13;2.65;;;9.50;94.20;;;;;;5098079;28;20049;-77
2022/12/26 00:53:10;;;;;;;6.03;2.90;;;9.60;94.20;;;;;;5133657;28;20043;-77
2022/12/26 00:55:35;;;;;;;5.75;2.40;;;9.60;94.20;;;;;;5115645;28;20070;-77
2022/12/26 00:58:01;;;;;;;5.20;2.67;;;9.50;94.20;;;;;;5098198;28;20150;-76
2022/12/26 01:00:26;;;;;;;5.63;2.55;;;9.60;94.20;;;;;;5115300;28;20689;-76
2022/12/26 01:02:52;;;;;;;6.43;2.60;;;9.60;94.20;;;;;;5098070;28;20390;-77
2022/12/26 01:05:18;;;;;;;6.00;2.90;;;9.60;94.20;;;;;;5097619;28;20514;-76
2022/12/26 01:07:43;;;;;;;5.93;3.05;;;9.50;94.20;;;;;;5097638;28;20039;-76
2022/12/26 01:10:11;;;;;;;6.95;3.17;;;9.60;94.20;;;;;;5133236;28;20046;-76
2022/12/26 01:12:37;;;;;;;6.55;3.30;;;9.60;94.20;;;;;;5114475;28;20096;-77
2022/12/26 01:15:04;;;;;;;6.55;3.50;;;9.60;94.20;;;;;;5132890;28;20035;-77
2022/12/26 01:17:30;;;;;;;6.72;3.25;;;9.60;94.20;;;;;;5114922;28;20042;-77
2022/12/26 01:20:02;;;;;;;6.78;3.40;;;9.60;94.20;;;;;;5115118;28;20122;-77
2022/12/26 01:22:28;;;;;;;6.15;3.10;;;9.60;94.20;;;;;;5132867;28;20039;-77
2022/12/26 01:24:55;;;;;;;6.57;3.20;;;9.60;94.20;;;;;;5115003;28;20375;-77
2022/12/26 01:27:22;;;;;;;5.63;2.97;;;9.70;94.20;;;;;;5114527;28;20134;-77
2022/12/26 01:29:48;;;;;;;6.72;3.58;;;9.60;94.20;;;;;;5114300;28;20057;-77
2022/12/26 01:32:14;;;;;;;6.97;3.33;;;9.60;94.20;;;;;;5115615;28;20043;-77
2022/12/26 01:34:40;;;;;;;7.25;3.45;;;9.60;94.20;;;;;;5115065;28;20118;-76
2022/12/26 01:37:06;;;;;;;5.63;3.15;;;9.60;94.50;;;;;;5099349;28;20057;-77
2022/12/26 01:39:31;;;;;;;5.72;3.00;;;9.60;94.20;;;;;;5101158;28;20047;-77
2022/12/26 01:41:57;;;;;;;6.03;3.25;;;9.50;94.20;;;;;;5118259;28;20111;-77
2022/12/26 01:44:53;;;;;;;4.80;2.65;;;9.60;94.20;;;;;;5136535;28;20050;-77
2022/12/26 01:47:21;;;;;;;5.30;2.60;;;9.60;94.20;;;;;;5136177;28;20474;-77
2022/12/26 01:49:51;;;;;;;6.30;2.95;;;9.60;94.30;;;;;;5118740;28;20111;-77
2022/12/26 01:52:28;;;;;;;4.90;2.60;;;9.60;94.30;;;;;;5118807;28;20043;-77
2022/12/26 01:54:55;;;;;;;4.82;2.58;;;9.60;94.20;;;;;;5118891;28;20035;-77
2022/12/26 01:57:26;;;;;;;5.25;2.60;;;9.60;94.30;;;;;;5136277;28;20043;-77
2022/12/26 01:59:54;;;;;;;5.55;2.85;;;9.60;94.30;;;;;;5118796;28;20054;-77
2022/12/26 02:02:20;;;;;;;4.65;2.40;;;9.50;94.30;;;;;;5084273;28;20105;-77
2022/12/26 02:07:33;;;;;;;5.63;2.55;;;9.50;94.30;;;;;;5136899;28;20058;-76
2022/12/26 02:09:59;;;;;;;5.90;3.05;;;9.50;94.30;;;;;;5136427;28;20431;-76
2022/12/26 02:12:30;;;;;;;5.03;2.88;;;9.50;94.30;;;;;;5100412;28;20074;-77
2022/12/26 02:14:57;;;;;;;5.03;2.80;;;9.50;94.30;;;;;;5118932;28;20035;-77
2022/12/26 02:17:25;;;;;;;4.80;2.50;;;9.50;94.30;;;;;;5100669;28;20043;-77
2022/12/26 02:20:13;;;;;;;4.60;2.28;;;9.60;94.30;;;;;;5136573;28;20498;-78
2022/12/26 02:23:01;;;;;;;6.03;2.90;;;9.50;94.30;;;;;;5118232;28;20542;-77
2022/12/26 02:25:58;;;;;;;4.75;2.38;;;9.50;94.30;;;;;;5137088;28;20035;-77
2022/12/26 02:28:58;;;;;;;5.88;2.45;;;9.50;94.30;;;;;;5136511;28;20039;-77
2022/12/26 02:31:46;;;;;;;5.93;3.13;;;9.50;94.30;;;;;;5089627;28;20050;-77
2022/12/26 02:34:19;;;;;;;6.22;3.40;;;9.50;94.30;;;;;;5118414;28;20040;-77
2022/12/26 02:37:10;;;;;;;7.05;4.07;;;9.60;94.30;;;;;;5117541;28;20043;-76
2022/12/26 02:40:06;;;;;;;6.25;3.50;;;9.50;94.30;;;;;;5120585;28;20074;-77
2022/12/26 02:42:54;;;;;;;6.93;3.65;;;9.40;94.30;;;;;;5106722;28;20450;-77
2022/12/26 02:48:57;;;;;;;6.82;3.60;;;9.50;94.30;;;;;;5135485;27;20042;-76
2022/12/26 03:14:51;;;;;;;6.57;3.63;;;9.40;94.30;;;;;;5121546;28;20070;-77
2022/12/26 03:17:26;;;;;;;7.57;4.20;;;9.40;94.20;;;;;;5117591;28;20405;-77
2022/12/26 03:20:05;;;;;;;7.70;4.30;;;9.40;94.20;;;;;;5101688;28;20039;-77
2022/12/26 03:22:44;;;;;;;6.57;3.65;;;9.30;94.20;;;;;;5101280;28;20547;-77
2022/12/26 03:28:00;;;;;;;6.70;3.60;;;9.30;94.20;;;;;;5136354;28;20043;-77
2022/12/26 03:35:50;;;;;;;5.82;3.15;;;9.30;94.30;;;;;;5120429;28;20506;-77
2022/12/26 03:38:21;;;;;;;6.13;3.45;;;9.30;94.40;;;;;;5136598;28;20035;-77
2022/12/26 04:46:21;;;;;;;8.55;5.10;;;9.50;94.10;;;;;;5134376;28;20043;-77
2022/12/26 04:51:29;;;;;;;8.15;5.32;;;9.40;94.10;;;;;;5134105;28;20405;-76
2022/12/26 04:53:55;;;;;;;7.82;5.05;;;9.40;94.10;;;;;;5134056;28;20046;-76
2022/12/26 04:56:20;;;;;;;7.68;4.90;;;9.40;94.10;;;;;;5135121;28;20470;-77
2022/12/26 04:58:46;;;;;;;8.40;5.35;;;9.40;94.10;;;;;;5116590;28;20045;-76
2022/12/26 05:09:44;;;;;;;6.72;4.55;;;9.30;94.20;;;;;;5134512;28;20387;-76
2022/12/26 05:11:57;;;;;;;8.20;5.05;;;9.30;94.20;;;;;;5118542;28;20058;-75
2022/12/26 05:14:23;;;;;;;6.63;4.60;;;9.30;94.20;;;;;;5138069;28;20031;-75
2022/12/26 05:30:22;;;;;;;6.25;4.35;;;9.30;94.10;;;;;;5122215;28;20123;-75
2022/12/26 05:35:33;;;;;;;5.38;3.50;;;9.30;94.10;;;;;;5137237;28;20042;-75
2022/12/26 05:37:58;;;;;;;6.43;3.92;;;9.20;94.10;;;;;;5136920;28;20427;-75
2022/12/26 05:40:24;;;;;;;5.95;3.75;;;9.20;94.10;;;;;;5118713;28;20153;-75
2022/12/26 05:42:50;;;;;;;5.30;3.50;;;9.20;94.10;;;;;;5084853;28;20401;-75
2022/12/26 05:45:15;;;;;;;5.45;3.58;;;9.20;94.10;;;;;;5118732;28;20096;-76
2022/12/26 05:47:41;;;;;;;5.10;3.33;;;9.20;94.10;;;;;;5118575;28;20069;-76
2022/12/26 05:50:07;;;;;;;4.65;3.08;;;9.20;94.10;;;;;;5118396;28;20435;-75
2022/12/26 05:52:33;;;;;;;4.85;2.88;;;9.20;94.10;;;;;;5136702;28;20118;-76
2022/12/26 05:54:58;;;;;;;4.07;2.45;;;9.20;94.10;;;;;;5118647;28;20069;-77
2022/12/26 05:57:24;;;;;;;3.28;2.20;;;9.10;94.10;;;;;;5118550;28;20044;-76
2022/12/26 05:59:50;;;;;;;4.10;2.47;;;9.10;94.10;;;;;;5136839;28;20043;-76
2022/12/26 06:02:15;;;;;;;4.10;2.33;;;9.10;94.10;;;;;;5118376;28;20502;-76
2022/12/26 06:04:41;;;;;;;4.57;2.10;;;9.10;94.10;;;;;;5136386;28;20039;-76
2022/12/26 06:07:06;;;;;;;3.15;2.28;;;9.10;94.10;;;;;;5118397;28;20031;-76
2022/12/26 06:09:32;;;;;;;2.60;1.90;;;9.10;94.20;;;;;;5118186;28;20447;-76
2022/12/26 06:11:58;;;;;;;3.53;2.15;;;9.10;94.10;;;;;;5137141;28;20046;-76
2022/12/26 06:14:23;;;;;;;2.88;1.80;;;9.10;94.10;;;;;;5118165;28;20478;-76
2022/12/26 06:16:49;;;;;;;3.25;1.85;;;9.10;94.10;;;;;;5118116;28;20054;-76
2022/12/26 06:19:15;;;;;;;3.10;1.58;;;9.00;94.10;;;;;;5084139;28;20042;-76
2022/12/26 06:21:40;;;;;;;2.42;1.70;;;9.10;94.10;;;;;;5117815;28;20075;-76
2022/12/26 06:24:06;;;;;;;3.20;1.80;;;9.00;94.10;;;;;;5117773;28;20039;-77
2022/12/26 06:26:32;;;;;;;2.58;1.73;;;9.00;94.10;;;;;;5136036;28;20039;-76
2022/12/26 06:28:57;;;;;;;3.10;1.85;;;9.00;94.10;;;;;;5117872;28;20401;-77
2022/12/26 06:31:23;;;;;;;2.42;1.73;;;9.00;94.10;;;;;;5100727;28;20051;-76
2022/12/26 06:33:53;;;;;;;2.50;1.50;;;9.00;94.20;;;;;;5135752;28;20096;-75
2022/12/26 06:36:20;;;;;;;2.42;1.58;;;9.00;94.20;;;;;;5117492;28;20039;-75
2022/12/26 06:38:46;;;;;;;2.75;1.50;;;9.00;94.20;;;;;;5135922;28;20444;-76
2022/12/26 06:41:14;;;;;;;2.47;1.70;;;8.90;94.10;;;;;;5117333;28;20042;-76
2022/12/26 06:43:40;;;;;;;2.58;1.60;;;8.90;94.20;;;;;;5135744;28;20034;-76
2022/12/26 06:46:08;;;;;;;2.33;1.60;;;8.90;94.20;;;;;;5135823;28;20039;-76
2022/12/26 06:48:42;;;;;;;2.58;1.60;;;8.90;94.20;;;;;;5117126;28;20035;-76
2022/12/26 06:51:12;;;;;;;1.45;1.20;;;8.90;94.20;;;;;;5135458;28;20070;-75
2022/12/26 06:53:38;;;;;;;2.60;1.63;;;8.80;94.20;;;;;;5117321;28;20091;-75
2022/12/26 06:56:06;;;;;;;2.55;1.60;;;8.80;94.20;;;;;;5135353;28;20051;-76
2022/12/26 06:58:32;;;;;;;2.95;1.77;;;8.80;94.20;;;;;;5117455;28;20087;-75
2022/12/26 07:01:15;;;;;;;2.78;1.65;;;8.80;94.20;;;;;;5116983;28;20043;-76
2022/12/26 07:03:41;;;;;;;4.70;2.00;;;8.90;94.30;;;;;;5135306;28;20047;-76
2022/12/26 07:06:16;;;;;;;4.05;2.15;;;8.70;94.20;;;;;;5117252;28;20046;-75
2022/12/26 07:08:41;;;;;;;3.78;2.10;;;8.80;94.20;;;;;;5135816;28;20039;-75
2022/12/26 07:11:16;;;;;;;3.95;2.30;;;8.70;94.10;;;;;;5117057;28;20524;-76
2022/12/26 07:13:42;;;;;;;3.70;2.35;;;8.80;94.20;;;;;;5135122;28;20069;-76
2022/12/26 07:16:09;;;;;;;4.00;2.47;;;8.80;94.20;;;;;;5135301;28;20042;-76
2022/12/26 07:18:35;;;;;;;4.07;2.40;;;8.80;94.10;;;;;;5116847;28;20040;-76
2022/12/26 07:21:10;;;;;;;4.57;2.38;;;8.80;94.10;;;;;;5135011;28;20152;-76
2022/12/26 07:23:36;;;;;;;2.90;1.73;;;8.80;94.20;;;;;;5099861;28;20050;-76
2022/12/26 07:26:02;;;;;;;3.30;2.05;;;8.70;94.10;;;;;;5117002;28;20125;-75
2022/12/26 07:28:28;;;;;;;3.55;2.15;;;8.70;94.10;;;;;;5135051;28;20071;-76
2022/12/26 07:30:56;;;;;;;3.72;2.05;;;8.70;94.10;;;;;;5135246;28;20078;-76
2022/12/26 07:33:22;;;;;;;3.38;2.17;;;8.70;94.10;;;;;;5082936;28;20090;-76
2022/12/26 07:35:48;;;;;;;2.78;1.85;;;8.70;94.20;;;;;;5115653;28;20401;-75
2022/12/26 07:38:14;;;;;;;3.42;1.88;;;8.70;94.10;;;;;;5116212;28;20050;-75
2022/12/26 07:40:40;;;;;;;2.75;1.92;;;8.70;94.10;;;;;;5134908;28;20371;-76
2022/12/26 07:43:06;;;;;;;3.03;1.80;;;8.70;94.10;;;;;;5116143;28;20054;-76
2022/12/26 07:45:31;;;;;;;3.35;2.00;;;8.80;94.10;;;;;;5134917;28;20122;-76
2022/12/26 07:47:57;;;;;;;4.32;2.55;;;8.70;94.10;;;;;;5098957;28;20043;-76
2022/12/26 07:50:24;;;;;;;3.30;1.90;;;8.70;94.10;;;;;;5116417;28;20050;-75
2022/12/26 07:52:50;;;;;;;3.85;2.30;;;8.80;94.40;;;;;;5098725;28;20039;-75
2022/12/26 07:55:16;;;;;;;3.60;2.35;;;8.80;94.10;;;;;;5134433;28;20500;-76
2022/12/26 07:57:42;;;;;;;3.65;2.20;;;8.90;94.10;;;;;;5134354;28;20047;-76
2022/12/26 08:00:08;;;;;;;4.05;2.63;;;8.80;94.00;;;;;;5115814;28;20038;-76
2022/12/26 08:02:34;;;;;;;3.78;2.50;;;8.90;94.00;;;;;;5115790;28;20039;-76
2022/12/26 08:05:00;;;;;;;5.28;2.40;;;8.80;94.00;;;;;;5115820;28;20096;-76
2022/12/26 08:07:25;;;;;;;3.30;2.10;;;8.90;94.00;;;;;;5134646;28;20111;-76
2022/12/26 08:09:51;;;;;;;3.42;2.20;;;8.90;94.00;;;;;;5134722;28;20358;-76
2022/12/26 08:12:20;;;;;;;3.83;2.17;;;8.90;94.00;;;;;;5115754;28;20046;-75
2022/12/26 08:14:46;;;;;;;3.85;2.10;;;8.90;93.90;;;;;;5099846;28;20059;-76
2022/12/26 08:17:12;;;;;;;3.85;2.40;;;9.00;93.90;;;;;;5134287;28;20081;-76
2022/12/26 08:19:38;;;;;;;2.80;1.80;;;9.00;93.90;;;;;;5115600;28;20504;-76
2022/12/26 08:22:04;;;;;;;3.30;2.03;;;9.00;93.80;;;;;;5134667;28;20160;-76
2022/12/26 08:24:30;;;;;;;3.00;1.98;;;9.10;93.80;;;;;;5115567;28;20039;-76
2022/12/26 08:26:56;;;;;;;3.70;2.00;;;9.10;93.80;;;;;;5134493;28;20039;-75
2022/12/26 08:29:21;;;;;;;2.90;1.90;;;9.10;93.80;;;;;;5134637;28;20031;-76
2022/12/26 08:31:47;;;;;;;2.30;1.55;;;9.20;93.80;;;;;;5115284;28;20148;-76
2022/12/26 08:34:12;;;;;;;2.50;1.70;;;9.20;93.70;;;;;;5134268;28;20070;-76
2022/12/26 08:36:38;;;;;;;3.00;1.80;;;9.30;93.70;;;;;;5134195;28;20131;-76
2022/12/26 08:39:04;;;;;;;2.83;2.03;;;9.30;93.70;;;;;;5116160;28;20035;-76
2022/12/26 08:41:30;;;;;;;2.97;1.83;;;9.30;93.70;;;;;;5133623;28;20180;-76
2022/12/26 08:43:56;;;;;;;3.13;1.90;;;9.30;93.60;;;;;;5115080;28;20074;-76
2022/12/26 08:46:22;;;;;;;3.17;2.17;;;9.30;93.60;;;;;;5132746;27;20039;-76
2022/12/26 08:48:48;;;;;;;3.22;2.20;;;9.30;93.60;;;;;;5133866;28;20047;-76
2022/12/26 08:51:18;;;;;;;2.30;1.50;;;9.30;93.60;;;;;;5081282;28;20035;-76
2022/12/26 08:53:45;;;;;;;3.08;1.80;;;9.30;93.70;;;;;;5114820;28;20084;-76
2022/12/26 08:56:14;;;;;;;3.00;1.80;;;9.30;93.60;;;;;;5098357;28;20078;-77
2022/12/26 08:58:40;;;;;;;2.53;1.60;;;9.40;93.70;;;;;;5133886;28;20051;-75
2022/12/26 09:01:11;;;;;;;2.13;1.63;;;9.40;93.70;;;;;;5134179;28;20061;-76
2022/12/26 09:03:38;;;;;;;2.25;1.70;;;9.40;93.60;;;;;;5098024;28;20039;-75
2022/12/26 09:06:04;;;;;;;3.92;1.60;;;9.50;93.60;;;;;;5134092;28;20034;-76
2022/12/26 09:08:33;;;;;;;2.70;1.70;;;9.50;93.60;;;;;;5098004;28;20450;-76
2022/12/26 09:11:08;;;;;;;2.92;1.60;;;9.60;93.60;;;;;;5133279;28;20035;-76
2022/12/26 09:13:35;;;;;;;2.38;1.50;;;9.60;93.50;;;;;;5133147;28;20043;-76
2022/12/26 09:16:07;;;;;;;2.78;1.60;;;9.70;93.50;;;;;;5133141;28;20042;-76
2022/12/26 09:18:33;;;;;;;2.92;1.80;;;9.70;93.50;;;;;;5133408;28;20054;-75
2022/12/26 09:21:00;;;;;;;2.25;1.60;;;9.80;93.40;;;;;;5133910;28;20035;-76
2022/12/26 09:23:26;;;;;;;3.13;1.60;;;9.90;93.40;;;;;;5133781;28;20039;-76
2022/12/26 09:25:52;;;;;;;2.38;1.60;;;9.90;93.30;;;;;;5133260;28;20126;-76
2022/12/26 09:28:17;;;;;;;1.88;1.40;;;10.00;93.30;;;;;;5114555;28;20123;-76
2022/12/26 09:30:43;;;;;;;1.98;1.55;;;10.00;93.30;;;;;;5133418;28;20129;-76
2022/12/26 09:33:09;;;;;;;3.38;1.60;;;10.00;93.20;;;;;;5133172;28;20047;-75
2022/12/26 09:35:39;;;;;;;2.80;1.65;;;10.10;93.20;;;;;;5132846;28;20043;-76
2022/12/26 09:38:04;;;;;;;2.17;1.33;;;10.10;93.20;;;;;;5114546;28;20047;-74
2022/12/26 09:40:42;;;;;;;2.30;1.45;;;10.10;93.10;;;;;;5132731;28;20091;-75
2022/12/26 09:43:22;;;;;;;3.72;1.98;;;10.20;93.10;;;;;;5114374;28;20051;-74
2022/12/26 09:46:05;;;;;;;3.45;1.70;;;10.20;93.00;;;;;;5132768;28;20050;-74
2022/12/26 09:48:37;;;;;;;2.90;1.60;;;10.20;93.00;;;;;;5133243;28;20122;-74
2022/12/26 09:51:03;;;;;;;2.28;1.38;;;10.20;93.00;;;;;;5132506;28;20047;-75
2022/12/26 09:53:33;;;;;;;2.20;1.60;;;10.30;93.10;;;;;;5114293;28;20035;-75
2022/12/26 09:56:05;;;;;;;2.38;1.40;;;10.10;93.00;;;;;;5097677;28;20461;-74
2022/12/26 09:58:41;;;;;;;2.03;1.55;;;10.20;93.10;;;;;;5134827;27;20044;-75
2022/12/26 10:01:29;;;;;;;2.13;1.33;;;10.10;93.00;;;;;;5117792;28;20145;-76
2022/12/26 10:03:57;;;;;;;1.67;1.50;;;10.20;93.00;;;;;;5104074;28;20462;-76
2022/12/26 10:06:28;;;;;;;3.53;1.52;;;10.10;93.10;;;;;;5136445;28;20051;-76
2022/12/26 10:09:15;;;;;;;2.15;1.20;;;10.00;93.10;;;;;;5136416;28;20059;-76
2022/12/26 10:12:13;;;;;;;1.90;1.35;;;10.00;93.20;;;;;;5118556;28;20103;-77
2022/12/26 10:15:01;;;;;;;2.63;1.50;;;9.90;93.20;;;;;;5136380;28;20071;-74
2022/12/26 10:17:39;;;;;;;2.65;1.67;;;9.90;93.30;;;;;;5100739;28;20091;-75
2022/12/26 10:20:19;;;;;;;2.55;1.38;;;9.80;93.20;;;;;;5119204;28;20103;-76
2022/12/26 10:23:10;;;;;;;2.15;1.40;;;9.70;93.30;;;;;;5102427;28;20095;-77
2022/12/26 10:25:47;;;;;;;2.13;1.25;;;9.70;93.40;;;;;;5086805;28;20043;-75
2022/12/26 10:28:30;;;;;;;2.60;1.52;;;9.60;93.40;;;;;;5117342;28;20163;-74
2022/12/26 10:31:00;;;;;;;1.83;1.20;;;9.50;93.50;;;;;;5117205;28;20043;-75
2022/12/26 10:33:56;;;;;;;1.67;1.05;;;9.60;93.50;;;;;;5117628;28;20048;-75
2022/12/26 10:36:34;;;;;;;1.35;1.10;;;9.50;93.50;;;;;;5135911;28;20045;-76
2022/12/26 10:39:02;;;;;;;2.58;1.30;;;9.50;93.60;;;;;;5084223;28;20031;-75
2022/12/26 10:41:40;;;;;;;1.63;1.20;;;9.60;93.60;;;;;;5117309;28;20047;-75
2022/12/26 10:44:10;;;;;;;1.30;0.95;;;9.60;93.50;;;;;;5101184;28;20444;-75
2022/12/26 10:46:57;;;;;;;3.00;1.30;;;9.50;93.50;;;;;;5135709;28;20562;-75
2022/12/26 10:49:25;;;;;;;2.47;1.20;;;9.50;93.50;;;;;;5117440;28;20387;-75
2022/12/26 10:51:54;;;;;;;2.20;1.15;;;9.50;93.50;;;;;;5117261;28;20039;-76
2022/12/26 10:54:19;;;;;;;1.98;1.25;;;9.50;93.50;;;;;;5117764;28;20085;-75
2022/12/26 10:56:49;;;;;;;1.77;1.02;;;9.50;93.50;;;;;;5116993;28;20028;-76
2022/12/26 10:59:19;;;;;;;3.47;1.10;;;9.50;93.50;;;;;;5100041;28;20427;-76
2022/12/26 11:01:46;;;;;;;2.75;1.45;;;9.50;93.60;;;;;;5137609;28;20043;-76
2022/12/26 11:04:23;;;;;;;3.83;1.13;;;9.40;93.50;;;;;;5136139;28;20130;-75
2022/12/26 11:06:51;;;;;;;2.50;1.10;;;9.20;93.50;;;;;;5116855;28;20070;-75
2022/12/26 11:09:37;;;;;;;3.53;1.00;;;9.20;93.60;;;;;;5134976;27;20047;-76
2022/12/26 11:12:19;;;;;;;5.13;1.30;;;9.10;93.60;;;;;;5100039;28;20054;-76
2022/12/26 11:14:45;;;;;;;1.67;0.95;;;8.90;93.60;;;;;;5135015;28;20043;-76
2022/12/26 11:17:23;;;;;;;2.63;0.80;;;8.90;93.70;;;;;;5134769;28;20039;-75
2022/12/26 11:20:25;;;;;;;1.98;0.93;;;8.90;93.70;;;;;;5135172;28;20031;-75
2022/12/26 11:22:51;;;;;;;1.95;0.80;;;8.90;93.70;;;;;;5116363;28;20398;-74
2022/12/26 11:25:28;;;;;;;1.23;0.65;;;8.90;93.70;;;;;;5134683;28;20486;-75
2022/12/26 11:27:56;;;;;;;2.05;0.70;;;8.80;93.60;;;;;;5082963;28;20134;-75
2022/12/26 11:30:32;;;;;;;1.75;0.70;;;8.80;93.60;;;;;;5099239;28;20043;-75
2022/12/26 11:33:20;;;;;;;1.48;0.68;;;8.80;93.60;;;;;;5100315;28;20050;-76
2022/12/26 11:36:10;;;;;;;1.60;0.82;;;8.70;93.60;;;;;;5134880;28;20042;-75
2022/12/26 11:38:51;;;;;;;2.35;0.60;;;8.70;93.60;;;;;;5116313;28;20057;-76
2022/12/26 11:41:42;;;;;;;3.00;0.85;;;8.70;93.60;;;;;;5116973;28;20486;-75
2022/12/26 11:44:22;;;;;;;1.67;0.80;;;8.70;93.50;;;;;;5118194;28;20039;-74
2022/12/26 11:46:54;;;;;;;2.45;0.82;;;8.70;93.50;;;;;;5116103;28;20127;-74
2022/12/26 11:49:34;;;;;;;4.53;1.10;;;8.70;93.40;;;;;;5134389;28;20070;-73
2022/12/26 11:52:21;;;;;;;2.38;0.98;;;8.60;93.30;;;;;;5098867;28;20035;-73
2022/12/26 11:54:49;;;;;;;3.45;1.13;;;8.60;93.30;;;;;;5134097;28;20050;-75
2022/12/26 11:57:21;;;;;;;2.90;1.13;;;8.50;93.20;;;;;;5115894;28;20103;-74
2022/12/26 11:59:48;;;;;;;1.63;0.80;;;8.40;93.20;;;;;;5134657;28;20130;-73
2022/12/26 12:02:20;;;;;;;2.10;0.75;;;8.40;93.30;;;;;;5115799;28;20071;-74
2022/12/26 12:04:46;;;;;;;1.95;0.80;;;8.40;93.20;;;;;;5084887;28;20069;-77
2022/12/26 12:07:30;;;;;;;1.63;1.05;;;8.30;93.20;;;;;;5116524;28;20046;-76
2022/12/26 12:10:36;;;;;;;2.53;0.68;;;8.30;93.20;;;;;;5132646;28;20093;-75
2022/12/26 12:13:14;;;;;;;4.07;0.70;;;8.40;93.30;;;;;;5133673;28;20054;-75
2022/12/26 12:15:53;;;;;;;1.55;0.85;;;8.30;93.20;;;;;;5134087;28;20046;-76
2022/12/26 12:18:31;;;;;;;1.15;0.45;;;8.20;93.10;;;;;;5134442;28;20492;-75
2022/12/26 12:21:22;;;;;;;1.15;0.60;;;8.20;93.10;;;;;;5115615;28;20035;-75
2022/12/26 12:24:15;;;;;;;1.23;0.50;;;8.20;93.10;;;;;;5133815;28;20043;-75
2022/12/26 12:26:53;;;;;;;0.75;0.50;;;8.20;93.10;;;;;;5104547;28;20096;-76
2022/12/26 12:29:36;;;;;;;1.48;0.47;;;8.10;93.00;;;;;;5134395;28;20546;-76
2022/12/26 12:32:12;;;;;;;3.88;0.55;;;8.20;93.00;;;;;;5115505;28;20050;-73
2022/12/26 12:35:17;;;;;;;1.00;0.43;;;8.20;92.90;;;;;;5116892;28;20054;-75
2022/12/26 12:38:09;;;;;;;1.67;0.73;;;8.20;92.80;;;;;;5121357;28;20039;-75
2022/12/26 12:41:05;;;;;;;1.55;0.60;;;8.10;92.80;;;;;;5101945;28;20039;-75
2022/12/26 12:43:48;;;;;;;1.48;0.50;;;8.10;92.80;;;;;;5103012;28;20051;-77
2022/12/26 12:46:24;;;;;;;1.42;0.60;;;8.00;92.80;;;;;;5117197;28;20130;-77
2022/12/26 12:49:04;;;;;;;1.95;0.60;;;7.90;92.70;;;;;;5115591;28;20064;-75
2022/12/26 12:51:41;;;;;;;1.23;0.50;;;7.90;92.80;;;;;;5098247;28;20047;-76
2022/12/26 12:54:30;;;;;;;1.55;0.70;;;7.90;92.80;;;;;;5116155;28;20043;-75
2022/12/26 12:57:08;;;;;;;1.55;0.57;;;7.90;92.80;;;;;;5115124;28;20035;-75
2022/12/26 12:59:50;;;;;;;1.92;0.50;;;7.90;92.70;;;;;;5100103;28;20122;-76
2022/12/26 13:02:33;;;;;;;0.68;0.50;;;7.90;92.70;;;;;;5133511;28;20039;-76
2022/12/26 13:05:10;;;;;;;1.38;0.50;;;7.90;92.60;;;;;;5134263;28;20084;-77
2022/12/26 13:07:41;;;;;;;0.43;0.30;;;7.90;92.60;;;;;;5133460;28;20078;-76
2022/12/26 13:10:18;;;;;;;1.70;0.50;;;7.90;92.50;;;;;;5114902;28;20035;-77
2022/12/26 13:12:46;;;;;;;1.35;0.50;;;7.80;92.60;;;;;;5115875;28;20054;-77
2022/12/26 13:15:25;;;;;;;1.25;0.40;;;7.80;92.60;;;;;;5118291;28;20092;-77
2022/12/26 13:17:58;;;;;;;0.43;0.38;;;7.80;92.60;;;;;;5116186;28;20071;-77
2022/12/26 13:20:41;;;;;;;1.85;0.50;;;7.90;92.60;;;;;;5116591;28;20043;-78
2022/12/26 13:26:14;;;;;;;0.50;0.40;;;7.90;92.60;;;;;;5133005;28;20051;-76
2022/12/26 13:29:16;;;;;;;0.98;0.50;;;7.90;92.50;;;;;;5133238;28;20607;-76
2022/12/26 13:31:44;;;;;;;0.30;0.30;;;7.90;92.40;;;;;;5120632;28;20154;-75
2022/12/26 13:34:15;;;;;;;0.75;0.60;;;7.80;92.40;;;;;;5135373;27;20043;-76
2022/12/26 13:36:44;;;;;;;1.20;0.60;;;7.90;92.40;;;;;;5136403;28;20039;-76
2022/12/26 13:39:35;;;;;;;1.10;0.50;;;8.00;92.40;;;;;;5136855;28;20042;-75
2022/12/26 13:45:35;;;;;;;2.42;0.40;;;7.80;92.30;;;;;;5120962;28;20062;-76
2022/12/26 13:48:16;;;;;;;0.70;0.50;;;7.80;92.20;;;;;;5117981;28;20039;-76
2022/12/26 13:50:48;;;;;;;2.70;0.68;;;7.70;92.20;;;;;;5136237;28;20035;-76
2022/12/26 13:53:29;;;;;;;1.40;0.50;;;7.80;92.20;;;;;;5136703;28;20484;-75
2022/12/26 13:55:57;;;;;;;1.40;0.60;;;7.60;92.20;;;;;;5117949;28;20118;-76
2022/12/26 13:58:57;;;;;;;0.30;0.30;;;7.60;92.20;;;;;;5117850;28;20393;-76
2022/12/26 14:01:56;;;;;;;0.20;0.20;;;7.60;92.20;;;;;;5122888;28;20056;-77
2022/12/26 14:04:57;;;;;;;0.30;0.30;;;7.50;92.20;;;;;;5136103;28;20051;-76
2022/12/26 14:07:49;;;;;;;2.33;0.68;;;7.40;92.10;;;;;;5136164;28;20046;-76
2022/12/26 14:10:28;;;;;;;1.13;0.60;;;7.30;92.10;;;;;;5117771;28;20046;-76
2022/12/26 14:13:26;;;;;;;1.73;0.60;;;7.30;92.10;;;;;;5136001;28;20059;-76
2022/12/26 14:16:04;;;;;;;0.80;0.60;;;7.30;92.10;;;;;;5136267;28;20031;-75
2022/12/26 14:18:44;;;;;;;1.05;0.60;;;7.20;92.00;;;;;;5100319;28;20500;-74
2022/12/26 14:21:29;;;;;;;0.82;0.50;;;7.20;92.00;;;;;;5102225;28;20078;-76
2022/12/26 14:24:27;;;;;;;0.63;0.40;;;7.10;92.00;;;;;;5116936;28;20043;-76
2022/12/26 14:27:28;;;;;;;1.13;0.50;;;7.20;92.10;;;;;;5118486;28;20092;-75
2022/12/26 14:30:16;;;;;;;0.80;0.47;;;7.10;92.10;;;;;;5120920;28;20046;-75
2022/12/26 14:33:01;;;;;;;0.52;0.45;;;7.10;92.00;;;;;;5135635;28;20084;-75
2022/12/26 14:35:38;;;;;;;1.00;0.50;;;7.10;92.00;;;;;;5101477;28;20042;-75
2022/12/26 14:38:30;;;;;;;0.93;0.60;;;7.10;92.00;;;;;;5135533;28;20117;-75
2022/12/26 14:41:08;;;;;;;1.13;0.50;;;7.00;92.10;;;;;;5118825;28;20059;-75
2022/12/26 14:43:37;;;;;;;0.82;0.52;;;7.10;92.20;;;;;;5117089;27;20070;-76
2022/12/26 14:46:28;;;;;;;0.52;0.50;;;7.20;91.90;;;;;;5116234;28;20069;-76
2022/12/26 14:48:58;;;;;;;0.40;0.40;;;7.30;91.70;;;;;;5135207;28;20442;-76
2022/12/26 14:51:30;;;;;;;0.75;0.60;;;7.40;91.50;;;;;;5116886;28;20045;-75
2022/12/26 14:54:29;;;;;;;0.45;0.43;;;7.30;91.40;;;;;;5135332;28;20114;-76
2022/12/26 14:56:55;;;;;;;1.02;0.50;;;7.20;91.50;;;;;;5135721;28;20035;-76
2022/12/26 14:59:28;;;;;;;1.17;0.60;;;7.10;91.60;;;;;;5116849;28;20057;-76
2022/12/26 15:02:34;;;;;;;1.15;0.50;;;7.00;91.60;;;;;;5117699;28;20509;-76
2022/12/26 15:05:13;;;;;;;0.55;0.50;;;7.10;91.70;;;;;;5119748;28;20142;-76
2022/12/26 15:08:04;;;;;;;2.13;0.70;;;7.00;91.60;;;;;;5101041;28;20046;-76
2022/12/26 15:11:03;;;;;;;2.53;0.80;;;6.90;91.70;;;;;;5117307;28;20046;-75
2022/12/26 15:13:45;;;;;;;0.40;0.40;;;6.90;91.70;;;;;;5134932;28;20133;-75
2022/12/26 15:16:31;;;;;;;1.27;0.70;;;6.80;91.60;;;;;;5134987;28;20144;-75
2022/12/26 15:19:32;;;;;;;0.98;0.43;;;6.80;91.70;;;;;;5135376;28;20096;-76
2022/12/26 15:22:20;;;;;;;0.75;0.40;;;6.70;91.70;;;;;;5120055;28;20100;-75
2022/12/26 15:25:19;;;;;;;1.27;0.52;;;6.70;91.70;;;;;;5114786;28;20190;-75
2022/12/26 15:28:22;;;;;;;0.38;0.38;;;6.60;91.70;;;;;;5134744;28;20078;-75
2022/12/26 15:31:12;;;;;;;1.13;0.50;;;6.50;91.70;;;;;;5122817;28;20458;-75
2022/12/26 15:33:51;;;;;;;1.70;0.50;;;6.40;91.80;;;;;;5101547;28;20060;-75
2022/12/26 15:36:42;;;;;;;0.88;0.45;;;6.40;91.90;;;;;;5117922;28;20059;-75
2022/12/26 15:39:28;;;;;;;1.55;0.63;;;6.30;91.90;;;;;;5134583;28;20046;-75
2022/12/26 15:42:20;;;;;;;1.88;0.70;;;6.30;92.00;;;;;;5116761;28;20114;-75
2022/12/26 15:45:20;;;;;;;0.65;0.55;;;6.10;92.00;;;;;;5134551;28;20118;-76
2022/12/26 15:48:10;;;;;;;0.55;0.45;;;6.10;92.00;;;;;;5134122;28;20043;-75